Time;durP1;ratioP1;P1;durP2;ratioP2;P2;SDS_P1;SDS_P2;PMS_P1;PMS_P2;Temp;Humidity;BMP_temperature;BMP_pressure;BME280_temperature;BME280_humidity;BME280_pressure;Samples;Min_cycle;Max_cycle;Signal;HPM_P1;HPM_P2
2022/04/07 00:01:53;;;;;;;;;1.00;0.00;;;;;12.49;67.74;99309.00;4825391;29;45644;-83
2022/04/07 00:04:18;;;;;;;;;1.00;1.00;;;;;12.52;67.70;99303.41;4825294;29;45615;-81
2022/04/07 00:06:43;;;;;;;;;1.00;1.00;;;;;12.50;67.48;99288.81;4825172;29;46374;-81
2022/04/07 00:09:09;;;;;;;;;1.50;1.00;;;;;12.51;67.40;99291.28;4824349;29;45786;-85
2022/04/07 00:11:34;;;;;;;;;0.75;0.75;;;;;12.52;67.43;99271.88;4824766;29;45647;-83
2022/04/07 00:13:59;;;;;;;;;0.00;0.00;;;;;12.48;67.39;99267.94;4824578;29;45675;-82
2022/04/07 00:16:25;;;;;;;;;2.25;1.00;;;;;12.52;67.40;99269.25;4824088;29;46336;-82
2022/04/07 00:22:12;;;;;;;;;1.00;1.00;;;;;12.53;67.37;99273.53;4821781;29;45767;-83
2022/04/07 00:24:37;;;;;;;;;1.25;1.25;;;;;12.55;67.01;99273.41;4807537;29;45628;-85
2022/04/07 00:27:03;;;;;;;;;0.00;0.00;;;;;12.53;67.12;99268.28;4824037;29;45928;-84
2022/04/07 00:29:29;;;;;;;;;2.75;1.00;;;;;12.53;67.06;99252.53;4823941;29;45593;-86
2022/04/07 00:31:57;;;;;;;;;0.00;0.00;;;;;12.56;67.00;99257.50;4824194;29;45620;-88
2022/04/07 00:34:24;;;;;;;;;1.00;1.00;;;;;12.58;67.13;99263.38;4823868;29;45863;-82
2022/04/07 00:36:50;;;;;;;;;2.50;0.25;;;;;12.60;66.95;99271.13;4823776;29;45639;-84
2022/04/07 00:39:15;;;;;;;;;1.00;1.00;;;;;12.57;67.03;99261.78;4823838;29;45537;-82
2022/04/07 00:41:42;;;;;;;;;1.25;1.00;;;;;12.54;67.01;99235.78;4823714;29;45664;-87
2022/04/07 00:44:08;;;;;;;;;0.75;0.75;;;;;12.61;66.64;99247.34;4823829;29;45802;-81
2022/04/07 00:46:37;;;;;;;;;2.00;1.00;;;;;12.63;66.96;99228.78;4823599;29;45707;-84
2022/04/07 00:52:25;;;;;;;;;1.00;1.00;;;;;12.57;66.59;99206.59;4823607;29;45780;-86
2022/04/07 00:54:51;;;;;;;;;1.00;1.00;;;;;12.62;66.58;99206.13;4807151;29;45701;-88
2022/04/07 00:57:16;;;;;;;;;1.00;1.00;;;;;12.58;66.46;99199.50;4806672;29;46348;-86
2022/04/07 00:59:42;;;;;;;;;0.00;0.00;;;;;12.59;66.69;99199.38;4823493;29;45907;-84
2022/04/07 01:02:09;;;;;;;;;1.00;0.00;;;;;12.60;66.77;99190.50;4823519;29;45643;-84
2022/04/07 01:04:35;;;;;;;;;1.00;1.00;;;;;12.54;66.59;99177.16;4822622;29;45760;-84
2022/04/07 01:07:00;;;;;;;;;1.00;0.75;;;;;12.61;66.58;99178.19;4823452;29;47280;-85
2022/04/07 01:09:26;;;;;;;;;0.75;0.75;;;;;12.63;66.38;99179.66;4823454;29;46043;-86
2022/04/07 01:11:52;;;;;;;;;2.50;1.00;;;;;12.63;66.50;99165.75;4824038;29;45644;-88
2022/04/07 01:14:17;;;;;;;;;2.00;1.00;;;;;12.64;66.54;99164.72;4824818;29;45708;-87
2022/04/07 01:16:43;;;;;;;;;0.00;0.00;;;;;12.65;66.54;99163.75;4823721;29;45634;-87
2022/04/07 01:22:36;;;;;;;;;1.75;0.00;;;;;12.66;66.55;99140.94;4822686;29;45751;-84
2022/04/07 01:25:02;;;;;;;;;1.00;0.00;;;;;12.65;66.47;99147.16;4824946;29;45861;-88
2022/04/07 01:27:27;;;;;;;;;1.00;0.25;;;;;12.59;66.70;99136.31;4825150;29;48055;-90
2022/04/07 01:29:52;;;;;;;;;1.50;0.50;;;;;12.59;66.51;99157.31;4825465;29;46253;-86
2022/04/07 01:38:32;;;;;;;;;1.00;0.00;;;;;12.54;66.88;99143.84;4823274;29;45608;-89
2022/04/07 01:40:58;;;;;;;;;1.00;1.00;;;;;12.51;67.09;99128.41;4806891;29;46743;-89
2022/04/07 01:43:24;;;;;;;;;0.50;0.00;;;;;12.51;67.41;99123.16;4823714;29;45646;-86
2022/04/07 01:45:51;;;;;;;;;1.50;0.00;;;;;12.46;67.29;99124.59;4823808;29;45797;-87
2022/04/07 01:48:18;;;;;;;;;0.00;0.00;;;;;12.48;67.49;99125.25;4823136;29;45774;-82
2022/04/07 01:50:46;;;;;;;;;1.50;1.00;;;;;12.49;67.42;99127.72;4823406;29;45844;-84
2022/04/07 01:53:12;;;;;;;;;2.00;0.00;;;;;12.41;67.70;99132.97;4824049;29;45645;-86
2022/04/07 01:55:39;;;;;;;;;1.00;0.00;;;;;12.42;68.15;99121.44;4824129;29;45772;-86
2022/04/07 01:58:05;;;;;;;;;0.75;0.00;;;;;12.45;69.09;99131.66;4807116;29;47515;-85
2022/04/07 02:00:31;;;;;;;;;0.00;0.00;;;;;12.46;69.49;99129.84;4823460;29;46025;-83
2022/04/07 02:02:56;;;;;;;;;1.00;0.25;;;;;12.41;69.71;99125.09;4823105;29;45907;-87
2022/04/07 02:05:21;;;;;;;;;1.00;0.00;;;;;12.38;69.73;99103.53;4823613;29;45662;-83
2022/04/07 02:07:47;;;;;;;;;2.00;1.00;;;;;12.41;69.76;99127.72;4823135;29;46461;-87
2022/04/07 02:10:14;;;;;;;;;1.00;1.00;;;;;12.36;69.74;99135.19;4824089;29;45601;-87
2022/04/07 02:12:41;;;;;;;;;3.75;2.00;;;;;12.37;69.94;99118.47;4824951;29;45591;-86
2022/04/07 02:15:08;;;;;;;;;1.50;1.00;;;;;12.36;69.83;99110.78;4824905;29;45818;-88
2022/04/07 02:17:35;;;;;;;;;1.00;1.00;;;;;12.35;69.95;99096.81;4826142;29;45636;-83
2022/04/07 02:23:23;;;;;;;;;3.00;1.00;;;;;12.30;70.09;99087.75;4824858;29;45777;-85
2022/04/07 02:25:48;;;;;;;;;1.00;1.00;;;;;12.34;69.90;99086.47;4825951;29;45735;-83
2022/04/07 02:28:14;;;;;;;;;3.00;1.00;;;;;12.32;70.22;99072.66;4808616;29;45734;-87
2022/04/07 02:30:39;;;;;;;;;1.00;1.00;;;;;12.34;70.09;99065.44;4824101;29;46111;-86
2022/04/07 02:33:05;;;;;;;;;2.00;0.00;;;;;12.32;70.32;99062.97;4824289;29;45591;-86
2022/04/07 02:35:30;;;;;;;;;2.00;2.00;;;;;12.29;70.98;99050.19;4824464;29;45976;-87
2022/04/07 02:38:00;;;;;;;;;1.75;1.00;;;;;12.29;71.01;99044.94;4826033;29;45846;-87
2022/04/07 02:40:25;;;;;;;;;1.75;1.00;;;;;12.32;71.49;99038.50;4825806;29;46127;-84
2022/04/07 02:42:51;;;;;;;;;2.00;1.00;;;;;12.26;71.42;99024.22;4825761;29;45848;-85
2022/04/07 02:45:16;;;;;;;;;2.50;0.75;;;;;12.30;71.62;99022.13;4809098;29;45599;-87
2022/04/07 02:47:41;;;;;;;;;1.75;1.00;;;;;12.25;71.93;99006.84;4826090;29;45714;-86
2022/04/07 02:53:29;;;;;;;;;1.75;1.00;;;;;12.32;72.19;99007.00;4828294;29;45506;-86
2022/04/07 02:55:54;;;;;;;;;0.00;0.00;;;;;12.32;72.08;98996.50;4833421;29;45685;-86
2022/04/07 02:58:19;;;;;;;;;0.00;0.00;;;;;12.28;72.18;98984.69;4835800;29;45725;-85
2022/04/07 03:00:45;;;;;;;;;1.00;1.00;;;;;12.31;72.54;98979.91;4833072;29;45610;-85
2022/04/07 03:03:10;;;;;;;;;1.00;0.00;;;;;12.28;72.44;98974.19;4810741;29;45937;-87
2022/04/07 03:08:57;;;;;;;;;2.00;1.00;;;;;12.29;72.50;98970.56;4830080;29;46144;-86
2022/04/07 03:11:23;;;;;;;;;1.75;1.00;;;;;12.32;72.58;98962.38;4831435;29;46371;-89
2022/04/07 03:13:48;;;;;;;;;2.00;1.25;;;;;12.31;72.66;98951.03;4817301;29;45911;-89
2022/04/07 03:16:14;;;;;;;;;1.00;1.00;;;;;12.32;72.45;98962.38;4829717;29;45579;-88
2022/04/07 03:18:39;;;;;;;;;1.25;1.00;;;;;12.33;72.77;98949.06;4809665;29;48450;-86
2022/04/07 03:21:04;;;;;;;;;1.75;1.00;;;;;12.33;72.68;98938.56;4824448;29;46559;-86
2022/04/07 03:23:30;;;;;;;;;3.25;1.25;;;;;12.32;73.35;98934.28;4825191;29;45832;-88
2022/04/07 03:25:55;;;;;;;;;0.00;0.00;;;;;12.28;73.23;98914.59;4826489;29;46079;-88
2022/04/07 03:28:21;;;;;;;;;1.00;1.00;;;;;12.37;73.29;98912.81;4827296;29;46700;-88
2022/04/07 03:30:46;;;;;;;;;2.50;1.00;;;;;12.29;73.17;98892.63;4828188;29;45659;-84
2022/04/07 03:33:12;;;;;;;;;2.00;1.00;;;;;12.37;73.42;98903.13;4828951;29;45567;-86
2022/04/07 03:38:58;;;;;;;;;1.00;1.00;;;;;12.34;73.55;98892.94;4827721;29;45971;-86
2022/04/07 03:41:24;;;;;;;;;2.25;1.50;;;;;12.39;73.47;98882.78;4828355;29;45691;-87
2022/04/07 03:43:49;;;;;;;;;1.75;1.75;;;;;12.40;73.38;98870.47;4828173;29;45642;-86
2022/04/07 03:46:16;;;;;;;;;2.00;1.50;;;;;12.41;73.44;98854.56;4828489;29;45534;-83
2022/04/07 03:48:42;;;;;;;;;1.00;1.00;;;;;12.39;73.62;98838.13;4827871;29;46488;-84
2022/04/07 03:54:29;;;;;;;;;2.00;2.00;;;;;12.43;73.66;98825.47;4828142;29;45568;-86
2022/04/07 03:56:54;;;;;;;;;2.00;1.00;;;;;12.47;73.34;98809.22;4829275;29;45802;-88
2022/04/07 03:59:19;;;;;;;;;1.00;1.00;;;;;12.46;73.28;98812.03;4828054;29;45733;-87
2022/04/07 04:01:45;;;;;;;;;0.00;0.00;;;;;12.50;73.56;98805.47;4826715;29;45648;-85
2022/04/07 04:04:10;;;;;;;;;1.00;1.00;;;;;12.51;73.52;98802.69;4827385;29;45519;-85
2022/04/07 04:06:36;;;;;;;;;1.00;1.00;;;;;12.51;73.49;98786.91;4828014;29;45795;-87
2022/04/07 04:09:02;;;;;;;;;1.00;1.00;;;;;12.54;73.47;98799.72;4811052;29;48653;-88
2022/04/07 04:11:27;;;;;;;;;2.00;2.00;;;;;12.48;73.54;98792.50;4827255;29;46119;-89
2022/04/07 04:13:53;;;;;;;;;1.00;1.00;;;;;12.55;73.29;98779.50;4811629;29;45699;-88
2022/04/07 04:16:19;;;;;;;;;1.00;1.00;;;;;12.56;73.29;98784.63;4825998;29;45861;-84
2022/04/07 04:18:44;;;;;;;;;2.00;1.50;;;;;12.60;73.39;98778.03;4825524;29;46364;-85
2022/04/07 04:24:32;;;;;;;;;1.75;1.00;;;;;12.62;73.07;98780.50;4823580;29;45793;-86
2022/04/07 04:26:57;;;;;;;;;1.00;1.00;;;;;12.65;73.43;98756.50;4824570;29;45681;-86
2022/04/07 04:29:23;;;;;;;;;2.25;1.00;;;;;12.63;73.03;98748.78;4824893;29;45595;-87
2022/04/07 04:31:48;;;;;;;;;0.50;0.00;;;;;12.69;73.08;98770.94;4810959;29;47330;-85
2022/04/07 04:34:14;;;;;;;;;1.75;1.75;;;;;12.70;73.53;98774.41;4827827;29;45680;-85
2022/04/07 04:40:01;;;;;;;;;2.00;1.50;;;;;12.69;73.78;98749.09;4824940;29;46045;-90
2022/04/07 04:42:27;;;;;;;;;1.25;1.25;;;;;12.71;73.64;98749.75;4826064;29;45590;-83
2022/04/07 04:44:52;;;;;;;;;2.25;1.25;;;;;12.69;73.49;98755.19;4825155;29;45840;-85
2022/04/07 04:47:18;;;;;;;;;2.00;1.00;;;;;12.72;73.66;98765.38;4824430;29;45982;-84
2022/04/07 04:49:44;;;;;;;;;0.00;0.00;;;;;12.73;73.39;98735.47;4824558;29;45711;-86
2022/04/07 04:52:10;;;;;;;;;1.25;1.25;;;;;12.74;73.55;98738.94;4824753;29;45885;-89
2022/04/07 04:54:35;;;;;;;;;0.75;0.75;;;;;12.76;73.51;98739.56;4824648;29;45652;-86
2022/04/07 04:57:01;;;;;;;;;1.00;1.00;;;;;12.74;73.38;98726.59;4824179;29;45810;-83
2022/04/07 04:59:27;;;;;;;;;1.00;1.00;;;;;12.76;73.48;98715.91;4807906;29;45768;-85
2022/04/07 05:01:52;;;;;;;;;2.50;2.50;;;;;12.75;73.63;98722.97;4825888;29;45742;-83
2022/04/07 05:04:17;;;;;;;;;1.00;1.00;;;;;12.78;73.20;98727.09;4826979;29;45657;-84
2022/04/07 05:10:05;;;;;;;;;1.00;1.00;;;;;12.85;72.95;98730.66;4827821;29;45656;-85
2022/04/07 05:12:31;;;;;;;;;1.25;0.25;;;;;12.87;73.02;98733.94;4828465;29;46442;-83
2022/04/07 05:14:56;;;;;;;;;1.00;1.00;;;;;12.89;73.00;98714.41;4810011;29;45661;-85
2022/04/07 05:17:22;;;;;;;;;1.00;1.00;;;;;12.90;73.16;98705.50;4826565;29;45874;-82
2022/04/07 05:19:48;;;;;;;;;0.00;0.00;;;;;12.87;73.02;98689.28;4827264;29;45840;-84
2022/04/07 05:22:14;;;;;;;;;1.00;1.00;;;;;12.89;72.63;98690.75;4827267;29;46458;-86
2022/04/07 05:24:39;;;;;;;;;1.00;1.00;;;;;12.96;72.60;98701.38;4827547;29;45642;-86
2022/04/07 05:27:05;;;;;;;;;1.00;0.25;;;;;12.93;72.72;98684.16;4827899;29;45702;-88
2022/04/07 05:29:30;;;;;;;;;0.50;0.00;;;;;12.99;72.38;98703.69;4826764;29;45553;-89
2022/04/07 05:31:56;;;;;;;;;0.75;0.00;;;;;13.04;71.96;98696.09;4825706;29;46119;-88
2022/04/07 05:34:21;;;;;;;;;1.00;0.25;;;;;13.01;72.15;98668.34;4826608;29;45490;-85
2022/04/07 05:40:10;;;;;;;;;0.00;0.00;;;;;13.04;71.66;98673.25;4824581;29;45613;-86
2022/04/07 05:42:36;;;;;;;;;1.00;0.50;;;;;13.06;71.23;98675.72;4808921;29;47651;-84
2022/04/07 05:45:02;;;;;;;;;0.50;0.50;;;;;13.08;71.22;98681.63;4808220;29;45717;-87
2022/04/07 05:47:27;;;;;;;;;2.00;2.00;;;;;13.08;71.14;98663.22;4825553;29;45572;-82
2022/04/07 05:49:57;;;;;;;;;1.75;0.25;;;;;13.10;71.37;98649.91;4807822;29;47122;-85
2022/04/07 05:55:43;;;;;;;;;0.00;0.00;;;;;13.16;71.29;98665.84;4823984;29;45780;-89
2022/04/07 05:58:09;;;;;;;;;0.25;0.25;;;;;13.22;71.33;98648.56;4828542;29;45669;-83
2022/04/07 06:00:37;;;;;;;;;1.25;1.00;;;;;13.24;71.07;98662.31;4829015;29;45719;-83
2022/04/07 06:03:03;;;;;;;;;0.00;0.00;;;;;13.26;70.73;98661.19;4827338;29;46001;-85
2022/04/07 06:05:28;;;;;;;;;1.00;1.00;;;;;13.26;70.47;98660.34;4827863;29;45662;-83
2022/04/07 06:07:59;;;;;;;;;0.50;0.25;;;;;13.23;70.86;98656.25;4828322;29;45691;-88
2022/04/07 06:10:24;;;;;;;;;1.50;1.00;;;;;13.27;70.75;98657.56;4811064;29;47846;-85
2022/04/07 06:12:50;;;;;;;;;1.25;1.00;;;;;13.27;70.30;98646.22;4827511;29;46217;-88
2022/04/07 06:15:16;;;;;;;;;1.00;0.00;;;;;13.28;69.89;98650.50;4826294;29;45907;-85
2022/04/07 06:17:46;;;;;;;;;2.00;1.00;;;;;13.23;70.46;98656.25;4825215;29;45772;-90
2022/04/07 06:20:12;;;;;;;;;0.25;0.00;;;;;13.28;70.00;98661.81;4824805;29;45807;-87
2022/04/07 06:25:59;;;;;;;;;3.00;2.00;;;;;13.34;69.93;98666.38;4826005;29;45751;-82
2022/04/07 06:28:25;;;;;;;;;1.00;1.00;;;;;13.35;69.65;98641.72;4826640;29;45538;-88
2022/04/07 06:30:51;;;;;;;;;2.25;1.00;;;;;13.34;69.79;98644.50;4807688;29;47344;-84
2022/04/07 06:33:18;;;;;;;;;1.00;0.00;;;;;13.32;69.79;98660.47;4824073;29;46180;-83
2022/04/07 06:35:43;;;;;;;;;1.75;1.00;;;;;13.31;69.97;98635.16;4823745;29;45728;-84
2022/04/07 06:38:09;;;;;;;;;1.25;1.00;;;;;13.32;69.96;98633.34;4824888;29;45655;-87
2022/04/07 06:40:34;;;;;;;;;2.00;1.00;;;;;13.34;70.29;98624.28;4824788;29;45739;-86
2022/04/07 06:43:00;;;;;;;;;0.00;0.00;;;;;13.33;70.15;98635.78;4823658;29;46557;-82
2022/04/07 06:45:27;;;;;;;;;1.00;1.00;;;;;13.32;70.69;98613.13;4809665;29;45680;-89
2022/04/07 06:47:53;;;;;;;;;1.00;1.00;;;;;13.28;70.69;98630.25;4820620;29;45719;-94
2022/04/07 06:50:20;;;;;;;;;0.00;0.00;;;;;13.32;70.77;98636.81;4824831;29;45625;-85
2022/04/07 06:56:08;;;;;;;;;1.00;1.00;;;;;13.30;71.00;98632.72;4829365;29;45310;-88
2022/04/07 06:58:35;;;;;;;;;1.00;0.25;;;;;13.32;71.30;98613.13;4831867;29;45670;-90
2022/04/07 07:01:00;;;;;;;;;0.75;0.75;;;;;13.29;71.26;98594.25;4831950;29;46752;-81
2022/04/07 07:03:27;;;;;;;;;1.00;0.00;;;;;13.32;71.32;98597.38;4823247;29;45830;-80
2022/04/07 07:05:58;;;;;;;;;1.00;0.00;;;;;13.37;71.22;98612.59;4823275;29;45764;-81
2022/04/07 07:08:24;;;;;;;;;1.00;0.00;;;;;13.39;71.27;98606.16;4823266;29;45663;-82
2022/04/07 07:10:51;;;;;;;;;1.00;1.00;;;;;13.39;71.28;98608.78;4806539;29;47860;-82
2022/04/07 07:13:20;;;;;;;;;0.00;0.00;;;;;13.41;71.42;98622.59;4822906;29;46883;-82
2022/04/07 07:15:46;;;;;;;;;0.75;0.25;;;;;13.37;71.33;98607.34;4823074;29;45792;-82
2022/04/07 07:18:11;;;;;;;;;2.00;0.00;;;;;13.41;71.19;98611.25;4823067;29;45683;-82
2022/04/07 07:20:37;;;;;;;;;1.00;0.00;;;;;13.38;70.95;98606.34;4822546;29;46710;-82
2022/04/07 07:26:24;;;;;;;;;1.00;0.00;;;;;13.42;71.15;98590.03;4821421;29;45649;-83
2022/04/07 07:28:50;;;;;;;;;0.00;0.00;;;;;13.45;71.90;98613.34;4823438;29;45802;-83
2022/04/07 07:31:15;;;;;;;;;0.00;0.00;;;;;13.40;72.54;98597.28;4806991;29;48491;-83
2022/04/07 07:33:40;;;;;;;;;0.00;0.00;;;;;13.39;73.36;98600.09;4822680;29;45617;-81
2022/04/07 07:36:06;;;;;;;;;0.00;0.00;;;;;13.39;73.00;98595.63;4806206;29;45702;-82
2022/04/07 07:38:31;;;;;;;;;0.00;0.00;;;;;13.48;72.69;98614.00;4822511;29;45883;-83
2022/04/07 07:40:56;;;;;;;;;0.00;0.00;;;;;13.44;72.41;98590.66;4806566;29;47702;-82
2022/04/07 07:43:22;;;;;;;;;0.00;0.00;;;;;13.51;72.33;98596.03;4822163;29;46420;-82
2022/04/07 07:45:50;;;;;;;;;0.00;0.00;;;;;13.58;72.10;98596.16;4823750;29;45678;-83
2022/04/07 07:48:16;;;;;;;;;1.00;0.00;;;;;13.61;71.77;98553.69;4807240;29;45756;-83
2022/04/07 07:50:45;;;;;;;;;0.00;0.00;;;;;13.65;72.01;98568.16;4823823;29;46344;-82
2022/04/07 07:56:32;;;;;;;;;0.00;0.00;;;;;13.81;72.33;98570.63;4823275;29;45578;-82
2022/04/07 07:58:58;;;;;;;;;0.00;0.00;;;;;13.82;72.67;98578.31;4824196;29;45549;-83
2022/04/07 08:01:24;;;;;;;;;0.00;0.00;;;;;13.85;72.34;98550.84;4806643;29;46360;-83
2022/04/07 08:03:50;;;;;;;;;0.00;0.00;;;;;13.85;72.10;98577.97;4821992;29;46312;-82
2022/04/07 08:12:21;;;;;;;;;0.00;0.00;;;;;13.96;72.16;98557.47;4823182;29;46023;-81
2022/04/07 08:14:46;;;;;;;;;1.00;0.00;;;;;13.99;72.46;98576.34;4822782;29;45972;-81
2022/04/07 08:17:12;;;;;;;;;1.00;0.00;;;;;14.01;72.42;98569.09;4806802;29;46142;-81
2022/04/07 08:19:40;;;;;;;;;0.00;0.00;;;;;14.03;72.47;98568.94;4823917;29;45929;-82
2022/04/07 08:22:05;;;;;;;;;0.00;0.00;;;;;14.04;71.90;98555.56;4823452;29;46319;-79
2022/04/07 08:24:30;;;;;;;;;0.00;0.00;;;;;14.08;72.08;98575.28;4823504;29;46207;-83
2022/04/07 08:26:56;;;;;;;;;0.00;0.00;;;;;14.12;71.70;98555.47;4822748;29;45970;-82
2022/04/07 08:29:22;;;;;;;;;0.00;0.00;;;;;14.17;71.70;98557.56;4826005;29;45618;-87
2022/04/07 08:31:51;;;;;;;;;0.00;0.00;;;;;14.22;71.02;98557.84;4827165;29;45713;-89
2022/04/07 08:34:17;;;;;;;;;0.00;0.00;;;;;14.34;71.30;98572.19;4827297;29;45880;-91
2022/04/07 08:36:43;;;;;;;;;0.00;0.00;;;;;14.41;71.02;98556.50;4827590;29;45813;-85
2022/04/07 08:39:08;;;;;;;;;0.50;0.00;;;;;14.46;70.65;98546.22;4827254;29;45491;-89
2022/04/07 08:41:34;;;;;;;;;0.00;0.00;;;;;14.56;70.87;98559.94;4810836;29;47912;-86
2022/04/07 08:44:00;;;;;;;;;0.00;0.00;;;;;14.65;70.11;98553.53;4827666;29;46168;-87
2022/04/07 08:46:28;;;;;;;;;0.00;0.00;;;;;14.72;70.23;98575.53;4828128;29;45884;-88
2022/04/07 08:48:55;;;;;;;;;0.00;0.00;;;;;14.73;70.07;98540.25;4811390;29;45929;-86
2022/04/07 08:51:21;;;;;;;;;0.00;0.00;;;;;14.86;69.43;98535.09;4812121;29;47349;-87
2022/04/07 08:57:08;;;;;;;;;0.00;0.00;;;;;14.94;68.70;98556.09;4830004;29;45590;-90
2022/04/07 08:59:34;;;;;;;;;0.00;0.00;;;;;15.01;68.70;98556.97;4809888;29;45915;-85
2022/04/07 09:02:04;;;;;;;;;0.00;0.00;;;;;15.05;68.76;98579.34;4826774;29;46417;-85
2022/04/07 09:04:31;;;;;;;;;0.00;0.00;;;;;15.10;68.52;98560.31;4825653;29;46179;-86
2022/04/07 09:06:58;;;;;;;;;0.00;0.00;;;;;15.16;67.83;98567.47;4823448;29;45794;-87
2022/04/07 09:09:23;;;;;;;;;0.00;0.00;;;;;15.19;68.09;98558.34;4824411;29;45683;-88
2022/04/07 09:11:55;;;;;;;;;0.00;0.00;;;;;15.26;67.86;98546.88;4807436;29;47509;-87
2022/04/07 09:14:21;;;;;;;;;0.00;0.00;;;;;15.36;67.43;98557.09;4809402;29;47291;-90
2022/04/07 09:16:52;;;;;;;;;0.00;0.00;;;;;15.41;67.41;98574.00;4810652;29;45669;-84
2022/04/07 09:19:21;;;;;;;;;0.00;0.00;;;;;15.43;67.32;98557.97;4826293;29;46063;-86
2022/04/07 09:21:47;;;;;;;;;0.00;0.00;;;;;15.50;67.16;98569.38;4828275;29;46479;-85
2022/04/07 09:27:40;;;;;;;;;0.00;0.00;;;;;15.59;67.06;98562.19;4822335;29;45832;-85
2022/04/07 09:30:08;;;;;;;;;1.00;0.00;;;;;15.64;67.40;98559.78;4824475;29;45742;-85
2022/04/07 09:32:41;;;;;;;;;0.00;0.00;;;;;15.68;66.96;98548.66;4823898;29;46230;-85
2022/04/07 09:35:07;;;;;;;;;0.00;0.00;;;;;15.70;66.57;98575.69;4825396;29;45966;-86
2022/04/07 09:37:34;;;;;;;;;0.00;0.00;;;;;15.73;66.23;98563.91;4825923;29;45855;-85
2022/04/07 09:40:12;;;;;;;;;0.00;0.00;;;;;15.77;66.00;98571.25;4825281;29;45690;-85
2022/04/07 09:42:41;;;;;;;;;0.00;0.00;;;;;15.77;65.54;98589.75;4825498;29;46496;-85
2022/04/07 09:45:11;;;;;;;;;0.00;0.00;;;;;15.78;65.77;98574.72;4808937;29;47345;-84
2022/04/07 09:47:39;;;;;;;;;0.50;0.00;;;;;15.83;65.97;98585.50;4808963;29;45685;-85
2022/04/07 09:50:19;;;;;;;;;0.00;0.00;;;;;15.82;65.68;98579.41;4824916;29;45601;-82
2022/04/07 09:53:04;;;;;;;;;0.00;0.00;;;;;15.86;65.75;98590.44;4824170;29;46418;-86
2022/04/07 09:55:37;;;;;;;;;0.00;0.00;;;;;15.92;65.22;98589.66;4807546;29;48096;-86
2022/04/07 09:58:06;;;;;;;;;0.00;0.00;;;;;15.98;64.93;98585.44;4809681;29;45749;-89
2022/04/07 10:00:33;;;;;;;;;0.00;0.00;;;;;16.00;64.55;98588.69;4828928;29;45899;-87
2022/04/07 10:03:03;;;;;;;;;0.00;0.00;;;;;16.05;64.72;98576.53;4812311;29;48550;-87
2022/04/07 10:05:29;;;;;;;;;0.00;0.00;;;;;16.09;64.66;98595.44;4828219;29;46532;-88
2022/04/07 10:09:50;;;;;;;;;0.00;0.00;;;;;16.05;64.50;98584.44;4825211;29;45891;-89
2022/04/07 10:11:53;;;;;;;;;1.00;0.00;;;;;16.03;65.28;98573.28;4673693;30;45780;-88
2022/04/07 10:14:23;;;;;;;;;0.00;0.00;;;;;16.02;65.97;98595.41;4681302;30;45852;-91
2022/04/07 10:16:48;;;;;;;;;0.00;0.00;;;;;16.00;69.20;98605.34;4664049;30;46106;-87
2022/04/07 10:19:23;;;;;;;;;0.00;0.00;;;;;15.78;75.09;98664.50;4677772;30;45804;-86
2022/04/07 10:22:13;;;;;;;;;0.00;0.00;;;;;15.31;77.57;98731.00;4678318;30;45846;-89
2022/04/07 10:24:56;;;;;;;;;0.00;0.00;;;;;14.80;78.24;98667.66;4677344;30;48292;-90
2022/04/07 10:27:25;;;;;;;;;0.00;0.00;;;;;14.47;79.24;98688.31;4677834;30;47029;-87
2022/04/07 10:30:04;;;;;;;;;0.00;0.00;;;;;14.20;80.19;98691.50;4678531;30;45894;-86
2022/04/07 10:32:36;;;;;;;;;0.00;0.00;;;;;14.00;79.92;98695.66;4678032;30;45845;-84
2022/04/07 10:35:03;;;;;;;;;0.00;0.00;;;;;13.89;80.25;98725.84;4677427;30;46409;-85
2022/04/07 10:40:50;;;;;;;;;0.00;0.00;;;;;13.78;81.26;98713.91;4681075;30;45655;-89
2022/04/07 10:43:28;;;;;;;;;1.50;0.00;;;;;13.73;81.10;98711.00;4681265;30;45563;-83
2022/04/07 10:46:02;;;;;;;;;0.00;0.00;;;;;13.76;81.08;98713.28;4727210;29;46468;-88
2022/04/07 10:48:32;;;;;;;;;0.00;0.00;;;;;13.76;80.75;98715.09;4823691;29;46651;-86
2022/04/07 10:51:00;;;;;;;;;0.00;0.00;;;;;13.81;78.96;98725.94;4825211;29;45964;-89
2022/04/07 10:56:49;;;;;;;;;0.00;0.00;;;;;13.94;78.92;98749.84;4824634;29;45578;-85
2022/04/07 10:59:19;;;;;;;;;0.00;0.00;;;;;14.02;79.29;98756.88;4824749;29;45928;-84
2022/04/07 11:01:47;;;;;;;;;0.00;0.00;;;;;14.06;79.64;98735.25;4825646;29;45806;-83
2022/04/07 11:07:04;;;;;;;;;0.00;0.00;;;;;14.19;77.62;98730.22;4824733;29;45569;-83
2022/04/07 11:13:01;;;;;;;;;0.00;0.00;;;;;14.34;77.51;98727.63;4824769;29;45809;-82
2022/04/07 11:15:42;;;;;;;;;0.00;0.00;;;;;14.41;80.39;98762.00;4824851;29;45525;-80
2022/04/07 11:18:42;;;;;;;;;0.00;0.00;;;;;14.46;80.92;98757.00;4824630;29;46595;-84
2022/04/07 11:21:09;;;;;;;;;0.00;0.00;;;;;14.46;77.42;98759.66;4750406;29;46050;-83
2022/04/07 11:23:39;;;;;;;;;0.00;0.00;;;;;14.51;76.62;98763.38;4751106;29;46435;-85
2022/04/07 11:26:17;;;;;;;;;0.00;0.00;;;;;14.59;80.02;98791.47;4735033;29;46070;-86
2022/04/07 11:29:04;;;;;;;;;0.00;0.00;;;;;14.67;74.98;98789.59;4747087;29;45806;-86
2022/04/07 11:31:50;;;;;;;;;0.00;0.00;;;;;14.73;73.65;98759.06;4732639;29;47279;-85
2022/04/07 11:34:38;;;;;;;;;0.00;0.00;;;;;14.85;75.48;98768.13;4747407;29;45901;-83
2022/04/07 11:37:07;;;;;;;;;0.00;0.00;;;;;14.90;75.09;98762.34;4732645;29;45860;-83
2022/04/07 11:39:33;;;;;;;;;0.00;0.00;;;;;14.93;75.25;98796.25;4747056;29;45822;-81
2022/04/07 11:42:00;;;;;;;;;0.00;0.00;;;;;14.96;80.41;98853.88;4747631;29;46106;-83
2022/04/07 11:44:26;;;;;;;;;0.00;0.00;;;;;14.92;75.81;98803.31;4747918;29;45698;-83
2022/04/07 11:46:51;;;;;;;;;0.00;0.00;;;;;14.90;78.79;98805.31;4733955;29;46007;-83
2022/04/07 11:49:17;;;;;;;;;1.25;0.00;;;;;14.85;77.58;98860.41;4748201;29;45751;-82
2022/04/07 11:51:45;;;;;;;;;0.00;0.00;;;;;14.85;77.31;98822.66;4749319;29;45810;-81
2022/04/07 11:54:15;;;;;;;;;0.00;0.00;;;;;14.81;74.58;98822.22;4733503;29;45663;-83
2022/04/07 11:56:41;;;;;;;;;0.00;0.00;;;;;14.83;76.37;98890.59;4749460;29;45690;-83
2022/04/07 11:59:11;;;;;;;;;0.00;0.00;;;;;14.83;76.49;98854.50;4820592;29;45694;-83
2022/04/07 12:01:43;;;;;;;;;0.00;0.00;;;;;14.84;76.31;98874.63;4823792;29;45838;-80
2022/04/07 12:04:10;;;;;;;;;0.00;0.00;;;;;14.82;72.88;98826.50;4823529;29;45588;-81
2022/04/07 12:06:38;;;;;;;;;0.00;0.00;;;;;14.85;75.80;98831.41;4824793;29;45811;-80
2022/04/07 12:09:04;;;;;;;;;0.00;0.00;;;;;14.84;75.20;98893.06;4824427;29;45551;-84
2022/04/07 12:11:32;;;;;;;;;0.00;0.00;;;;;14.86;70.48;98834.88;4824977;29;46174;-85
2022/04/07 12:14:00;;;;;;;;;2.75;0.00;;;;;14.89;74.44;98835.34;4824717;29;45608;-80
2022/04/07 12:16:26;;;;;;;;;0.00;0.00;;;;;14.86;71.69;98864.69;4824897;29;45627;-81
2022/04/07 12:19:04;;;;;;;;;0.00;0.00;;;;;14.84;74.91;98828.97;4824142;29;46382;-84
2022/04/07 12:21:51;;;;;;;;;0.25;0.25;;;;;14.84;72.44;98845.63;4825102;29;46006;-84
2022/04/07 12:24:17;;;;;;;;;0.25;0.25;;;;;14.79;72.06;98887.47;4825474;29;45788;-84
2022/04/07 12:26:43;;;;;;;;;0.50;0.00;;;;;14.86;71.37;98862.06;4794128;29;45696;-81
2022/04/07 12:29:19;;;;;;;;;0.75;0.00;;;;;14.91;72.83;98874.69;4825384;29;46669;-84
2022/04/07 12:31:48;;;;;;;;;0.00;0.00;;;;;14.97;74.64;98892.44;4829376;29;46647;-88
2022/04/07 12:34:17;;;;;;;;;1.25;0.00;;;;;14.93;69.22;98872.72;4828953;29;45899;-89
2022/04/07 12:36:43;;;;;;;;;1.00;0.00;;;;;15.00;70.80;98855.19;4813220;29;45757;-87
2022/04/07 12:39:12;;;;;;;;;1.00;0.00;;;;;15.04;71.23;98856.44;4813187;29;48667;-85
2022/04/07 12:41:50;;;;;;;;;1.00;0.00;;;;;15.15;67.92;98856.00;4826665;29;48496;-84
2022/04/07 12:44:21;;;;;;;;;0.00;0.00;;;;;15.17;68.03;98895.41;4827544;29;45814;-85
2022/04/07 12:46:53;;;;;;;;;1.00;0.25;;;;;15.24;63.90;98898.94;4827774;29;45519;-85
2022/04/07 12:49:40;;;;;;;;;0.00;0.00;;;;;15.17;69.96;98871.66;4827933;29;46618;-84
2022/04/07 12:52:18;;;;;;;;;1.75;0.00;;;;;15.18;66.71;98929.50;4824695;29;46102;-84
2022/04/07 12:55:31;;;;;;;;;0.00;0.00;;;;;15.22;65.25;98904.41;4825190;29;45792;-85
2022/04/07 12:57:57;;;;;;;;;2.00;0.00;;;;;15.24;69.03;98915.59;4734507;29;45863;-84
2022/04/07 13:00:23;;;;;;;;;2.00;1.00;;;;;15.25;67.66;98916.41;4749277;29;46535;-86
2022/04/07 13:02:52;;;;;;;;;1.50;1.00;;;;;15.18;70.25;98897.00;4749689;29;46130;-84
2022/04/07 13:05:29;;;;;;;;;1.00;0.00;;;;;15.25;70.11;98908.50;4749801;29;45901;-85
2022/04/07 13:07:57;;;;;;;;;1.25;0.00;;;;;15.24;66.58;98885.75;4749431;29;45612;-84